createdAt,value
2018-04-06T00:00:22.137Z,5.20
2018-04-06T00:02:50.364Z,5.20
2018-04-06T00:05:18.716Z,5.30
2018-04-06T00:07:47.688Z,5.30
2018-04-06T00:10:15.958Z,5.20
2018-04-06T00:12:44.225Z,5.30
2018-04-06T00:15:12.472Z,5.30
2018-04-06T00:17:40.730Z,5.20
2018-04-06T00:20:08.993Z,5.10
2018-04-06T00:22:37.167Z,5.10
2018-04-06T00:25:05.455Z,5.10
2018-04-06T00:27:33.677Z,5.00
2018-04-06T00:30:02.708Z,4.80
2018-04-06T00:32:32.188Z,4.80
2018-04-06T00:35:00.573Z,4.90
2018-04-06T00:37:28.796Z,4.80
2018-04-06T00:39:57.066Z,4.70
2018-04-06T00:42:25.267Z,4.70
2018-04-06T00:44:54.224Z,4.60
2018-04-06T00:47:22.852Z,4.60
2018-04-06T00:49:51.166Z,4.60
2018-04-06T00:52:19.410Z,4.40
2018-04-06T00:54:48.901Z,4.40
2018-04-06T00:57:17.861Z,4.40
2018-04-06T00:59:46.051Z,4.40
2018-04-06T01:02:14.451Z,4.40
2018-04-06T01:04:42.621Z,4.30
2018-04-06T01:07:11.637Z,4.10
2018-04-06T01:09:40.002Z,4.00
2018-04-06T01:12:08.178Z,4.10
2018-04-06T01:14:37.152Z,4.00
2018-04-06T01:17:07.412Z,3.90
2018-04-06T01:19:35.656Z,3.90
2018-04-06T01:22:04.647Z,3.80
2018-04-06T01:24:32.853Z,3.70
2018-04-06T01:27:01.104Z,3.70
2018-04-06T01:29:29.320Z,3.70
2018-04-06T01:31:57.600Z,3.60
2018-04-06T01:34:25.792Z,3.40
2018-04-06T01:36:54.016Z,3.40
2018-04-06T01:39:22.418Z,3.50
2018-04-06T01:41:50.617Z,3.50
2018-04-06T01:44:18.848Z,3.50
2018-04-06T01:46:47.068Z,3.50
2018-04-06T01:49:15.266Z,3.50
2018-04-06T01:51:43.490Z,3.40
2018-04-06T01:54:11.754Z,3.30
2018-04-06T01:56:40.768Z,3.10
2018-04-06T01:59:08.985Z,3.10
2018-04-06T02:01:37.361Z,3.00
2018-04-06T02:04:05.796Z,3.00
2018-04-06T02:06:34.834Z,3.00
2018-04-06T02:09:03.226Z,3.00
2018-04-06T02:11:32.243Z,2.80
2018-04-06T02:14:00.521Z,2.70
2018-04-06T02:16:28.713Z,2.80
2018-04-06T02:18:57.002Z,2.80
2018-04-06T02:21:25.212Z,2.80
2018-04-06T02:23:53.460Z,2.80
2018-04-06T02:26:21.653Z,2.80
2018-04-06T02:28:49.843Z,2.60
2018-04-06T02:31:18.861Z,2.60
2018-04-06T02:33:47.066Z,2.60
2018-04-06T02:36:15.653Z,2.60
2018-04-06T02:38:43.913Z,2.60
2018-04-06T02:41:12.122Z,2.70
2018-04-06T02:43:40.361Z,2.50
2018-04-06T02:46:08.589Z,2.50
2018-04-06T02:48:36.804Z,2.30
2018-04-06T02:51:04.993Z,2.30
2018-04-06T02:53:33.229Z,2.30
2018-04-06T02:56:02.218Z,2.20
2018-04-06T02:58:31.185Z,2.20
2018-04-06T03:00:59.467Z,2.20
2018-04-06T03:03:27.681Z,2.30
2018-04-06T03:05:56.642Z,2.00
2018-04-06T03:08:25.236Z,2.00
2018-04-06T03:10:54.199Z,2.10
2018-04-06T03:13:22.420Z,2.00
2018-04-06T03:15:50.722Z,2.10
2018-04-06T03:18:18.950Z,2.10
2018-04-06T03:20:47.135Z,2.00
2018-04-06T03:23:16.121Z,2.10
2018-04-06T03:25:44.400Z,2.10
2018-04-06T03:28:13.184Z,2.20
2018-04-06T03:30:41.417Z,2.20
2018-04-06T03:33:09.618Z,2.20
2018-04-06T03:35:37.856Z,2.30
2018-04-06T03:38:06.081Z,2.40
2018-04-06T03:40:34.286Z,2.40
2018-04-06T03:43:02.558Z,2.30
2018-04-06T03:45:31.550Z,2.20
2018-04-06T03:48:00.550Z,2.10
2018-04-06T03:50:29.512Z,2.10
2018-04-06T03:52:57.789Z,2.10
2018-04-06T03:55:25.974Z,2.00
2018-04-06T03:57:55.001Z,2.00
2018-04-06T04:00:23.268Z,2.00
2018-04-06T04:02:51.482Z,2.00
2018-04-06T04:05:19.676Z,1.80
2018-04-06T04:07:47.920Z,1.70
2018-04-06T04:10:16.441Z,1.60
2018-04-06T04:12:44.692Z,1.50
2018-04-06T04:15:15.370Z,1.50
2018-04-06T04:17:44.329Z,1.30
2018-04-06T04:20:12.545Z,1.30
2018-04-06T04:22:41.679Z,1.10
2018-04-06T04:25:09.873Z,1.00
2018-04-06T04:27:38.072Z,0.90
2018-04-06T04:30:07.120Z,0.80
2018-04-06T04:32:35.417Z,0.80
2018-04-06T04:35:03.682Z,0.80
2018-04-06T04:37:31.937Z,0.90
2018-04-06T04:40:00.185Z,0.80
2018-04-06T04:42:29.141Z,0.60
2018-04-06T04:44:57.384Z,0.50
2018-04-06T04:47:25.660Z,0.60
2018-04-06T04:49:53.849Z,0.90
2018-04-06T04:52:22.309Z,1.00
2018-04-06T04:54:50.530Z,1.00
2018-04-06T04:57:18.773Z,1.00
2018-04-06T04:59:47.037Z,1.00
2018-04-06T05:02:15.397Z,1.00
2018-04-06T05:04:43.600Z,1.00
2018-04-06T05:07:11.814Z,1.00
2018-04-06T05:09:40.061Z,0.90
2018-04-06T05:12:09.013Z,0.90
2018-04-06T05:14:37.249Z,0.90
2018-04-06T05:17:05.456Z,1.00
2018-04-06T05:19:34.435Z,0.90
2018-04-06T05:22:02.677Z,0.80
2018-04-06T05:24:30.938Z,0.90
2018-04-06T05:26:59.857Z,1.00
2018-04-06T05:29:28.193Z,1.00
2018-04-06T05:31:56.462Z,1.10
2018-04-06T05:34:24.680Z,1.20
2018-04-06T05:36:52.936Z,1.30
2018-04-06T05:39:21.149Z,1.30
2018-04-06T05:41:49.372Z,1.40
2018-04-06T05:44:17.676Z,1.50
2018-04-06T05:46:45.865Z,1.60
2018-04-06T05:49:14.212Z,1.50
2018-04-06T05:51:42.457Z,1.60
2018-04-06T05:54:11.476Z,1.90
2018-04-06T05:56:39.937Z,1.90
2018-04-06T05:59:08.313Z,2.10
2018-04-06T06:01:36.638Z,2.20
2018-04-06T06:04:04.833Z,2.20
2018-04-06T06:06:33.094Z,2.20
2018-04-06T06:09:01.337Z,2.40
2018-04-06T06:11:29.565Z,2.60
2018-04-06T06:13:57.817Z,2.70
2018-04-06T06:16:26.040Z,2.70
2018-04-06T06:18:55.117Z,3.00
2018-04-06T06:21:24.149Z,3.30
2018-04-06T06:23:52.396Z,3.30
2018-04-06T06:26:21.466Z,3.20
2018-04-06T06:28:49.775Z,3.20
2018-04-06T06:31:19.124Z,3.20
2018-04-06T06:33:47.551Z,3.20
2018-04-06T06:36:16.707Z,3.40
2018-04-06T06:38:44.980Z,3.40
2018-04-06T06:41:13.349Z,3.60
2018-04-06T06:43:41.585Z,3.90
2018-04-06T06:46:09.812Z,4.00
2018-04-06T06:48:38.024Z,4.20
2018-04-06T06:51:08.253Z,4.40
2018-04-06T06:53:37.221Z,4.60
2018-04-06T06:56:05.441Z,4.50
2018-04-06T06:58:33.737Z,4.70
2018-04-06T07:01:01.923Z,4.90
2018-04-06T07:03:30.177Z,4.90
2018-04-06T07:05:58.569Z,5.00
2018-04-06T07:08:26.917Z,5.10
2018-04-06T07:10:55.097Z,5.10
2018-04-06T07:13:23.409Z,5.50
2018-04-06T07:15:51.596Z,5.70
2018-04-06T07:18:19.812Z,5.60
2018-04-06T07:20:48.905Z,5.60
2018-04-06T07:23:17.925Z,5.80
2018-04-06T07:25:46.113Z,5.70
2018-04-06T07:28:14.388Z,5.80
2018-04-06T07:30:42.585Z,5.80
2018-04-06T07:33:10.804Z,5.70
2018-04-06T07:35:41.039Z,6.20
2018-04-06T07:38:10.113Z,6.10
2018-04-06T07:40:38.443Z,6.10
2018-04-06T07:43:06.802Z,6.20
2018-04-06T07:45:34.995Z,6.20
2018-04-06T07:48:03.285Z,6.30
2018-04-06T07:50:31.507Z,6.50
2018-04-06T07:53:00.580Z,7.10
2018-04-06T07:55:29.576Z,8.00
2018-04-06T07:57:58.589Z,7.70
2018-04-06T08:00:27.549Z,7.70
2018-04-06T08:02:55.822Z,7.70
2018-04-06T08:05:24.069Z,8.60
2018-04-06T08:07:52.253Z,9.20
2018-04-06T08:10:20.478Z,10.10
2018-04-06T08:12:49.506Z,11.10
2018-04-06T08:15:18.948Z,11.00
2018-04-06T08:17:47.149Z,11.10
2018-04-06T08:20:15.496Z,12.50
2018-04-06T08:22:43.753Z,12.80
2018-04-06T08:25:12.100Z,12.70
2018-04-06T08:27:40.324Z,11.80
2018-04-06T08:30:08.540Z,11.50
2018-04-06T08:32:36.771Z,12.20
2018-04-06T08:35:05.005Z,12.60
2018-04-06T08:37:34.004Z,11.10
2018-04-06T08:40:02.193Z,11.10
2018-04-06T08:42:30.582Z,11.10
2018-04-06T08:44:58.728Z,10.90
2018-04-06T08:47:26.957Z,10.40
2018-04-06T08:49:55.212Z,10.80
2018-04-06T08:52:23.826Z,10.70
2018-04-06T08:54:51.989Z,10.70
2018-04-06T08:57:20.288Z,10.40
2018-04-06T08:59:48.474Z,10.60
2018-04-06T09:02:17.443Z,10.20
2018-04-06T09:04:45.807Z,10.10
2018-04-06T09:07:14.741Z,11.10
2018-04-06T09:09:43.733Z,10.80
2018-04-06T09:12:12.050Z,10.80
2018-04-06T09:14:40.358Z,10.40
2018-04-06T09:17:09.338Z,11.40
2018-04-06T09:19:38.364Z,11.20
2018-04-06T09:22:07.473Z,11.00
2018-04-06T09:24:36.465Z,10.70
2018-04-06T09:27:05.604Z,10.60
2018-04-06T09:29:33.796Z,10.50
2018-04-06T09:32:02.029Z,10.50
2018-04-06T09:34:30.240Z,10.80
2018-04-06T09:36:58.429Z,10.70
2018-04-06T09:39:26.696Z,11.10
2018-04-06T09:41:54.942Z,11.80
2018-04-06T09:44:23.201Z,11.90
2018-04-06T09:46:51.442Z,11.90
2018-04-06T09:49:19.770Z,12.10
2018-04-06T09:51:48.003Z,12.90
2018-04-06T09:54:16.531Z,13.90
2018-04-06T09:56:45.590Z,15.10
2018-04-06T09:59:13.801Z,15.10
2018-04-06T10:01:42.095Z,14.40
2018-04-06T10:04:10.323Z,14.20
2018-04-06T10:06:38.520Z,14.90
2018-04-06T10:09:07.666Z,15.10
2018-04-06T10:11:35.968Z,15.10
2018-04-06T10:14:04.173Z,14.90
2018-04-06T10:16:32.400Z,14.50
2018-04-06T10:19:00.673Z,14.90
2018-04-06T10:21:28.982Z,15.10
2018-04-06T10:23:57.176Z,14.90
2018-04-06T10:26:25.471Z,15.20
2018-04-06T10:28:53.668Z,15.70
2018-04-06T10:31:21.873Z,16.60
2018-04-06T10:33:50.403Z,17.60
2018-04-06T10:36:19.517Z,17.30
2018-04-06T10:38:47.835Z,17.30
2018-04-06T10:41:16.040Z,17.20
2018-04-06T10:43:44.277Z,16.70
2018-04-06T10:46:12.591Z,18.00
2018-04-06T10:48:40.812Z,17.50
2018-04-06T10:51:09.052Z,17.20
2018-04-06T10:53:37.284Z,17.60
2018-04-06T10:56:05.524Z,17.50
2018-04-06T10:58:33.772Z,17.10
2018-04-06T11:01:01.958Z,17.50
2018-04-06T11:03:30.282Z,18.80
2018-04-06T11:05:58.597Z,19.60
2018-04-06T11:08:27.669Z,18.50
2018-04-06T11:10:55.892Z,18.50
2018-04-06T11:13:24.176Z,19.30
2018-04-06T11:15:52.476Z,20.00
2018-04-06T11:18:20.754Z,20.30
2018-04-06T11:20:48.992Z,19.30
2018-04-06T11:23:17.192Z,18.40
2018-04-06T11:25:45.836Z,19.20
2018-04-06T11:28:14.800Z,19.80
2018-04-06T11:30:43.022Z,19.80
2018-04-06T11:33:11.248Z,18.80
2018-04-06T11:35:39.494Z,19.40
2018-04-06T11:38:07.806Z,19.20
2018-04-06T11:40:36.121Z,17.10
2018-04-06T11:43:04.401Z,15.60
2018-04-06T11:45:32.670Z,14.90
2018-04-06T11:48:00.930Z,14.90
2018-04-06T11:50:29.978Z,15.80
2018-04-06T11:52:58.177Z,15.80
2018-04-06T11:55:26.416Z,17.80
2018-04-06T11:57:54.682Z,19.20
2018-04-06T12:00:23.460Z,19.20
2018-04-06T12:02:51.752Z,20.10
2018-04-06T12:05:19.984Z,19.80
2018-04-06T12:07:49.023Z,20.40
2018-04-06T12:10:18.292Z,20.30
2018-04-06T12:12:46.481Z,21.00
2018-04-06T12:15:14.750Z,21.70
2018-04-06T12:17:43.032Z,22.60
2018-04-06T12:20:11.262Z,22.10
2018-04-06T12:22:40.276Z,21.40
2018-04-06T12:25:09.369Z,20.80
2018-04-06T12:27:38.377Z,20.80
2018-04-06T12:30:06.581Z,20.80
2018-04-06T12:32:34.885Z,20.60
2018-04-06T12:35:03.218Z,20.30
2018-04-06T12:37:31.473Z,19.80
2018-04-06T12:39:59.761Z,19.90
2018-04-06T12:42:27.992Z,20.50
2018-04-06T12:44:56.194Z,19.90
2018-04-06T12:47:25.253Z,22.40
2018-04-06T12:49:53.464Z,22.40
2018-04-06T12:52:22.558Z,22.20
2018-04-06T12:54:51.550Z,22.40
2018-04-06T12:57:20.554Z,20.30
2018-04-06T12:59:49.504Z,20.20
2018-04-06T13:02:17.826Z,20.20
2018-04-06T13:04:46.801Z,21.80
2018-04-06T13:07:15.783Z,21.40
2018-04-06T13:09:43.997Z,21.40
2018-04-06T13:12:13.303Z,20.80
2018-04-06T13:14:41.516Z,20.50
2018-04-06T13:17:09.896Z,20.10
2018-04-06T13:19:38.747Z,20.50
2018-04-06T13:22:07.700Z,21.20
2018-04-06T13:24:36.022Z,21.10
2018-04-06T13:27:04.251Z,21.60
2018-04-06T13:29:32.451Z,20.10
2018-04-06T13:32:01.573Z,19.20
2018-04-06T13:34:29.798Z,19.20
2018-04-06T13:36:57.998Z,18.40
2018-04-06T13:39:26.235Z,18.80
2018-04-06T13:41:54.440Z,20.40
2018-04-06T13:46:46.667Z,21.40
2018-04-06T13:49:14.854Z,20.50
2018-04-06T13:51:43.933Z,22.10
2018-04-06T13:54:12.321Z,22.10
2018-04-06T13:56:40.544Z,22.60
2018-04-06T13:59:08.874Z,22.40
2018-04-06T14:01:37.240Z,22.60
2018-04-06T14:04:05.434Z,22.70
2018-04-06T14:06:33.641Z,22.80
2018-04-06T14:09:02.761Z,24.90
2018-04-06T14:11:30.973Z,24.80
2018-04-06T14:13:59.169Z,25.30
2018-04-06T14:16:28.256Z,24.20
2018-04-06T14:18:57.252Z,22.20
2018-04-06T14:21:26.356Z,23.50
2018-04-06T14:23:55.364Z,25.70
2018-04-06T14:26:23.611Z,25.70
2018-04-06T14:28:52.630Z,24.70
2018-04-06T14:31:21.626Z,23.20
2018-04-06T14:33:50.564Z,24.00
2018-04-06T14:36:18.760Z,23.90
2018-04-06T14:38:47.849Z,23.50
2018-04-06T14:41:16.015Z,23.50
2018-04-06T14:43:44.252Z,22.90
2018-04-06T14:46:12.474Z,22.40
2018-04-06T14:48:40.708Z,22.20
2018-04-06T14:51:08.906Z,23.30
2018-04-06T14:53:37.176Z,21.40
2018-04-06T14:56:05.402Z,20.20
2018-04-06T14:58:34.400Z,20.30
2018-04-06T15:01:03.492Z,21.00
2018-04-06T15:03:32.486Z,21.10
2018-04-06T15:06:01.497Z,19.70
2018-04-06T15:08:29.757Z,19.70
2018-04-06T15:10:58.724Z,18.60
2018-04-06T15:13:27.042Z,18.50
2018-04-06T15:15:55.280Z,18.40
2018-04-06T15:18:23.471Z,18.80
2018-04-06T15:20:52.445Z,17.90
2018-04-06T15:23:20.816Z,17.90
2018-04-06T15:25:49.067Z,18.60
2018-04-06T15:28:17.262Z,17.60
2018-04-06T15:30:45.485Z,17.40
2018-04-06T15:33:13.705Z,16.70
2018-04-06T15:35:41.895Z,16.00
2018-04-06T15:38:10.148Z,16.60
2018-04-06T15:40:39.157Z,17.10
2018-04-06T15:43:07.361Z,17.10
2018-04-06T15:45:36.421Z,16.30
2018-04-06T15:48:04.647Z,16.20
2018-04-06T15:50:32.923Z,16.60
2018-04-06T15:53:01.604Z,16.30
2018-04-06T15:55:29.934Z,16.40
2018-04-06T15:57:58.130Z,15.60
2018-04-06T16:00:26.824Z,15.20
2018-04-06T16:02:55.397Z,14.90
2018-04-06T16:05:23.604Z,14.60
2018-04-06T16:07:52.802Z,14.60
2018-04-06T16:10:21.826Z,14.50
2018-04-06T16:12:51.554Z,14.50
2018-04-06T16:15:20.282Z,14.30
2018-04-06T16:17:48.602Z,14.50
2018-04-06T16:20:16.885Z,14.10
2018-04-06T16:22:46.353Z,14.30
2018-04-06T16:25:15.480Z,14.10
2018-04-06T16:27:43.714Z,14.00
2018-04-06T16:30:12.112Z,13.80
2018-04-06T16:32:40.334Z,13.90
2018-04-06T16:35:08.492Z,13.80
2018-04-06T16:37:36.768Z,13.60
2018-04-06T16:40:05.894Z,13.60
2018-04-06T16:42:34.890Z,13.50
2018-04-06T16:45:03.197Z,13.50
2018-04-06T16:47:31.408Z,13.50
2018-04-06T16:50:00.490Z,13.30
2018-04-06T16:52:30.164Z,13.30
2018-04-06T16:54:58.370Z,13.30
2018-04-06T16:57:26.661Z,13.10
2018-04-06T16:59:55.628Z,13.00
2018-04-06T17:02:23.861Z,13.00
2018-04-06T17:04:52.814Z,12.90
2018-04-06T17:07:21.829Z,13.00
2018-04-06T17:09:50.033Z,13.00
2018-04-06T17:12:18.261Z,12.90
2018-04-06T17:14:47.301Z,13.00
2018-04-06T17:17:15.548Z,12.90
2018-04-06T17:19:44.618Z,12.80
2018-04-06T17:22:13.014Z,12.80
2018-04-06T17:24:41.988Z,12.70
2018-04-06T17:27:11.065Z,12.60
2018-04-06T17:29:39.465Z,12.50
2018-04-06T17:32:07.666Z,12.70
2018-04-06T17:34:36.640Z,12.40
2018-04-06T17:37:05.675Z,12.30
2018-04-06T17:39:34.010Z,12.30
2018-04-06T17:42:02.268Z,12.20
2018-04-06T17:44:30.653Z,12.10
2018-04-06T17:46:58.950Z,12.00
2018-04-06T17:49:27.975Z,12.00
2018-04-06T17:51:56.251Z,12.00
2018-04-06T17:54:24.440Z,11.90
2018-04-06T17:56:52.673Z,11.90
2018-04-06T17:59:21.868Z,11.80
2018-04-06T18:01:50.033Z,11.70
2018-04-06T18:04:18.990Z,11.60
2018-04-06T18:06:47.253Z,11.60
2018-04-06T18:09:15.477Z,11.50
2018-04-06T18:11:44.446Z,11.40
2018-04-06T18:14:12.690Z,11.30
2018-04-06T18:16:40.885Z,11.30
2018-04-06T18:19:09.085Z,11.30
2018-04-06T18:21:37.483Z,11.20
2018-04-06T18:24:07.810Z,11.20
2018-04-06T18:26:36.822Z,11.10
2018-04-06T18:29:05.069Z,11.10
2018-04-06T18:31:34.079Z,11.10
2018-04-06T18:34:03.065Z,11.00
2018-04-06T18:36:32.283Z,10.90
2018-04-06T18:39:00.474Z,10.90
2018-04-06T18:41:28.679Z,10.90
2018-04-06T18:43:57.045Z,10.80
2018-04-06T18:46:25.248Z,10.70
2018-04-06T18:48:53.455Z,10.70
2018-04-06T18:51:21.713Z,10.60
2018-04-06T18:53:50.761Z,10.50
2018-04-06T18:56:18.999Z,10.50
2018-04-06T18:58:47.261Z,10.60
2018-04-06T19:01:16.246Z,10.40
2018-04-06T19:03:45.192Z,10.30
2018-04-06T19:06:13.460Z,10.30
2018-04-06T19:08:41.714Z,10.30
2018-04-06T19:11:10.000Z,10.20
2018-04-06T19:13:38.221Z,10.20
2018-04-06T19:16:06.434Z,10.20
2018-04-06T19:18:35.449Z,10.00
2018-04-06T19:21:03.717Z,10.00
2018-04-06T19:23:32.024Z,10.10
2018-04-06T19:26:01.426Z,10.10
2018-04-06T19:31:09.316Z,9.90
2018-04-06T19:33:38.876Z,9.90
2018-04-06T19:36:07.422Z,9.90
2018-04-06T19:38:36.460Z,9.80
2018-04-06T19:41:04.711Z,9.70
2018-04-06T19:43:33.657Z,9.70
2018-04-06T19:46:01.908Z,9.70
2018-04-06T19:48:30.144Z,9.70
2018-04-06T19:50:58.337Z,9.70
2018-04-06T19:53:27.396Z,9.80
2018-04-06T19:55:55.596Z,9.70
2018-04-06T19:58:23.785Z,9.80
2018-04-06T20:00:52.138Z,9.70
2018-04-06T20:03:21.186Z,9.60
2018-04-06T20:05:49.388Z,9.60
2018-04-06T20:08:17.765Z,9.60
2018-04-06T20:10:46.043Z,9.50
2018-04-06T20:13:14.413Z,9.40
2018-04-06T20:18:18.026Z,9.40
2018-04-06T20:20:46.981Z,9.40
2018-04-06T20:23:15.180Z,9.40
2018-04-06T20:25:44.167Z,9.10
2018-04-06T20:28:13.420Z,9.10
2018-04-06T20:30:41.705Z,9.10
2018-04-06T20:33:09.939Z,9.10
2018-04-06T20:35:38.928Z,8.90
2018-04-06T20:38:07.905Z,8.90
2018-04-06T20:40:36.160Z,8.90
2018-04-06T20:43:04.365Z,8.80
2018-04-06T20:45:32.730Z,8.80
2018-04-06T20:48:01.108Z,8.80
2018-04-06T20:50:29.310Z,8.80
2018-04-06T20:52:57.513Z,8.80
2018-04-06T20:55:25.789Z,8.80
2018-04-06T20:57:53.974Z,8.60
2018-04-06T21:00:22.225Z,8.60
2018-04-06T21:02:50.489Z,8.70
2018-04-06T21:05:18.697Z,8.60
2018-04-06T21:07:46.956Z,8.60
2018-04-06T21:10:15.945Z,8.60
2018-04-06T21:12:44.132Z,8.60
2018-04-06T21:15:12.437Z,8.60
2018-04-06T21:17:40.744Z,8.60
2018-04-06T21:20:09.716Z,8.60
2018-04-06T21:22:38.045Z,8.60
2018-04-06T21:25:06.483Z,8.60
2018-04-06T21:27:34.747Z,8.40
2018-04-06T21:30:02.937Z,8.50
2018-04-06T21:32:31.486Z,8.60
2018-04-06T21:34:59.729Z,8.50
2018-04-06T21:37:28.020Z,8.50
2018-04-06T21:39:56.552Z,8.50
2018-04-06T21:42:24.998Z,8.50
2018-04-06T21:44:54.045Z,8.50
2018-04-06T21:47:22.630Z,8.60
2018-04-06T21:49:50.969Z,8.50
2018-04-06T21:52:19.470Z,8.40
2018-04-06T21:54:47.733Z,8.40
2018-04-06T21:57:16.009Z,8.50
2018-04-06T21:59:44.413Z,8.40
2018-04-06T22:02:13.490Z,8.40
2018-04-06T22:04:41.782Z,8.30
2018-04-06T22:07:10.743Z,8.30
2018-04-06T22:09:39.509Z,8.30
2018-04-06T22:12:07.886Z,8.40
2018-04-06T22:14:36.134Z,8.20
2018-04-06T22:17:05.126Z,8.10
2018-04-06T22:19:33.472Z,8.10
2018-04-06T22:22:01.660Z,8.10
2018-04-06T22:24:30.704Z,8.10
2018-04-06T22:26:58.908Z,8.10
2018-04-06T22:29:27.221Z,8.10
2018-04-06T22:31:55.502Z,8.10
2018-04-06T22:34:23.729Z,8.20
2018-04-06T22:36:51.916Z,8.20
2018-04-06T22:39:20.171Z,8.00
2018-04-06T22:41:48.397Z,7.90
2018-04-06T22:44:17.372Z,7.90
2018-04-06T22:46:45.580Z,7.90
2018-04-06T22:49:13.834Z,7.80
2018-04-06T22:51:42.886Z,7.60
2018-04-06T22:54:11.292Z,7.60
2018-04-06T22:56:39.549Z,7.70
2018-04-06T22:59:07.860Z,7.60
2018-04-06T23:01:36.865Z,7.60
2018-04-06T23:04:06.041Z,7.50
2018-04-06T23:06:34.224Z,7.50
2018-04-06T23:09:03.301Z,7.40
2018-04-06T23:11:31.687Z,7.40
2018-04-06T23:14:00.155Z,7.40
2018-04-06T23:16:28.584Z,7.30
2018-04-06T23:18:56.842Z,7.40
2018-04-06T23:21:25.863Z,7.40
2018-04-06T23:23:54.910Z,7.30
2018-04-06T23:26:23.147Z,7.30
2018-04-06T23:28:51.434Z,7.30
2018-04-06T23:31:19.902Z,7.20
2018-04-06T23:33:48.925Z,7.10
2018-04-06T23:36:17.120Z,7.10
2018-04-06T23:38:46.268Z,7.00
2018-04-06T23:41:14.477Z,6.90
2018-04-06T23:43:42.669Z,7.00
2018-04-06T23:46:11.713Z,7.00
2018-04-06T23:48:40.144Z,6.90
2018-04-06T23:51:08.356Z,7.00
2018-04-06T23:53:36.561Z,7.10
2018-04-06T23:56:04.766Z,7.00
2018-04-06T23:58:33.798Z,7.00
